Time;durP1;ratioP1;P1;durP2;ratioP2;P2;SDS_P1;SDS_P2;PMS_P1;PMS_P2;Temp;Humidity;BMP_temperature;BMP_pressure;BME280_temperature;BME280_humidity;BME280_pressure;Samples;Min_cycle;Max_cycle;Signal;HPM_P1;HPM_P2
2021/12/25 00:00:16;;;;;;;13.97;6.97;;;;;;;16.80;41.89;100630.22;5109540;27;20041;-68
2021/12/25 00:02:42;;;;;;;14.03;6.83;;;;;;;16.53;43.25;100633.03;5111921;27;20023;-68
2021/12/25 00:05:09;;;;;;;12.77;6.27;;;;;;;16.35;44.04;100629.31;5133157;27;20092;-68
2021/12/25 00:07:34;;;;;;;16.77;6.73;;;;;;;16.28;44.12;100633.09;5107241;27;20050;-68
2021/12/25 00:10:00;;;;;;;17.40;7.20;;;;;;;16.04;42.89;100637.47;5119578;27;20058;-68
2021/12/25 00:12:26;;;;;;;16.77;7.50;;;;;;;16.71;41.69;100631.47;5133621;27;20492;-68
2021/12/25 00:14:52;;;;;;;17.47;8.17;;;;;;;16.74;41.51;100633.97;5110373;28;20439;-68
2021/12/25 00:17:17;;;;;;;19.63;8.20;;;;;;;15.01;45.14;100644.41;5119098;27;20071;-68
2021/12/25 00:19:43;;;;;;;20.93;8.70;;;;;;;15.98;42.62;100630.66;5128844;27;20114;-68
2021/12/25 00:22:09;;;;;;;18.03;8.27;;;;;;;15.57;42.96;100635.56;5115312;27;20478;-68
2021/12/25 00:24:35;;;;;;;20.07;9.17;;;;;;;16.33;42.96;100639.03;5103990;27;20056;-68
2021/12/25 00:27:11;;;;;;;21.77;10.97;;;;;;;15.84;42.47;100648.72;5124089;27;20023;-68
2021/12/25 00:34:48;;;;;;;18.07;8.67;;;;;;;15.96;42.84;100647.44;5125826;27;20530;-67
2021/12/25 00:37:15;;;;;;;27.67;11.27;;;;;;;15.53;44.08;100649.75;5115135;27;20035;-68
2021/12/25 00:39:43;;;;;;;23.33;9.13;;;;;;;15.57;43.51;100646.94;5133196;27;20430;-68
2021/12/25 00:42:09;;;;;;;17.90;7.70;;;;;;;13.82;46.59;100648.66;5113957;27;20497;-68
2021/12/25 00:44:35;;;;;;;28.50;10.17;;;;;;;13.62;47.13;100656.19;5131814;27;20099;-68
2021/12/25 00:47:01;;;;;;;25.27;10.40;;;;;;;14.04;46.58;100661.19;5130802;27;20064;-69
2021/12/25 00:49:27;;;;;;;26.43;10.90;;;;;;;14.69;46.77;100652.38;5111885;27;20065;-68
2021/12/25 00:51:53;;;;;;;22.13;9.60;;;;;;;14.22;47.02;100642.31;5130890;27;20031;-68
2021/12/25 00:54:19;;;;;;;25.03;10.23;;;;;;;14.14;48.69;100652.16;5107799;27;20036;-68
2021/12/25 00:56:44;;;;;;;24.23;10.03;;;;;;;14.63;46.25;100647.31;5115013;27;20512;-68
2021/12/25 00:59:10;;;;;;;33.70;11.73;;;;;;;14.40;45.67;100645.31;5113573;27;20054;-68
2021/12/25 01:01:36;;;;;;;38.33;11.93;;;;;;;15.23;44.39;100647.22;5112185;27;20031;-68
2021/12/25 01:04:05;;;;;;;28.07;11.30;;;;;;;15.29;44.38;100647.03;5112630;27;20019;-68
2021/12/25 01:06:31;;;;;;;33.60;12.53;;;;;;;15.10;45.25;100647.59;5115181;27;20479;-68
2021/12/25 01:08:56;;;;;;;31.67;11.80;;;;;;;14.75;46.17;100651.31;5129577;27;20085;-68
2021/12/25 01:11:25;;;;;;;28.27;11.83;;;;;;;14.81;44.79;100651.16;5113478;27;20580;-68
2021/12/25 01:13:57;;;;;;;24.93;9.87;;;;;;;14.14;46.30;100653.94;5110734;27;20371;-68
2021/12/25 01:22:26;;;;;;;23.60;10.97;;;;;;;14.41;46.24;100658.41;5129009;27;20112;-68
2021/12/25 01:25:18;;;;;;;22.20;11.10;;;;;;;13.62;47.21;100646.53;5130503;27;20478;-67
2021/12/25 01:30:36;;;;;;;21.60;9.93;;;;;;;14.22;45.61;100662.47;5131786;27;20035;-68
2021/12/25 01:41:16;;;;;;;22.17;10.50;;;;;;;14.06;45.11;100641.84;5128739;27;20035;-68
2021/12/25 01:49:10;;;;;;;18.27;8.93;;;;;;;14.93;43.58;100652.53;5131031;27;20066;-68
2021/12/25 01:51:35;;;;;;;19.63;8.50;;;;;;;14.60;44.72;100642.09;5127642;27;20114;-68
2021/12/25 01:54:01;;;;;;;16.70;7.37;;;;;;;13.93;44.91;100656.25;5131523;27;20067;-68
2021/12/25 01:56:26;;;;;;;20.70;8.80;;;;;;;14.60;43.88;100647.34;5107552;27;20034;-67
2021/12/25 01:58:52;;;;;;;13.37;6.93;;;;;;;14.60;43.57;100647.34;5111448;27;20224;-67
2021/12/25 02:01:17;;;;;;;17.83;7.70;;;;;;;13.97;44.57;100663.16;5108853;27;20027;-68
2021/12/25 02:03:43;;;;;;;17.03;8.57;;;;;;;13.98;45.34;100664.00;5130186;27;20410;-68
2021/12/25 02:06:11;;;;;;;16.57;7.10;;;;;;;14.04;44.52;100653.31;5112368;27;20058;-68
2021/12/25 02:08:39;;;;;;;15.23;7.17;;;;;;;13.40;46.45;100652.31;5113801;27;20082;-68
2021/12/25 02:11:05;;;;;;;14.73;7.63;;;;;;;13.24;46.28;100650.94;5111751;27;20030;-68
2021/12/25 02:13:31;;;;;;;17.67;7.40;;;;;;;13.52;45.66;100650.31;5131114;27;20109;-68
2021/12/25 02:15:58;;;;;;;11.73;6.17;;;;;;;13.48;45.93;100659.16;5112709;27;20030;-68
2021/12/25 02:21:07;;;;;;;14.30;6.67;;;;;;;13.10;46.40;100653.03;5131424;27;20043;-68
2021/12/25 02:23:33;;;;;;;13.93;6.77;;;;;;;13.57;45.67;100653.66;5112394;27;20031;-68
2021/12/25 02:25:59;;;;;;;11.03;5.80;;;;;;;13.37;45.41;100656.78;5109875;27;20062;-68
2021/12/25 02:28:26;;;;;;;16.10;6.87;;;;;;;14.01;44.43;100654.28;5112743;27;20027;-68
2021/12/25 02:30:55;;;;;;;12.80;6.50;;;;;;;14.67;43.42;100646.31;5110728;27;20026;-68
2021/12/25 02:33:21;;;;;;;13.93;6.70;;;;;;;14.23;44.34;100653.66;5111007;27;20019;-68
2021/12/25 02:35:46;;;;;;;15.80;8.20;;;;;;;14.39;43.25;100654.94;5108816;27;20034;-68
2021/12/25 02:38:12;;;;;;;12.80;7.20;;;;;;;12.91;46.42;100658.69;5111388;27;20031;-68
2021/12/25 02:40:38;;;;;;;16.70;7.40;;;;;;;13.65;46.24;100662.19;5105630;27;20491;-68
2021/12/25 02:43:03;;;;;;;13.50;6.93;;;;;;;13.22;45.10;100668.50;5111709;27;20090;-67
2021/12/25 02:45:29;;;;;;;14.07;7.20;;;;;;;13.96;43.55;100664.03;5123140;27;20490;-68
2021/12/25 02:48:08;;;;;;;13.43;6.10;;;;;;;13.36;44.91;100668.19;5105390;27;20030;-68
2021/12/25 02:50:35;;;;;;;14.13;6.60;;;;;;;13.66;44.37;100669.19;5128359;27;20023;-68
2021/12/25 02:53:03;;;;;;;15.43;7.37;;;;;;;12.92;45.19;100675.31;5112472;27;20565;-68
2021/12/25 02:55:28;;;;;;;11.20;5.40;;;;;;;12.95;45.83;100676.09;5130502;27;20019;-68
2021/12/25 02:57:55;;;;;;;13.50;6.80;;;;;;;12.11;46.74;100682.16;5110478;27;20019;-68
2021/12/25 03:00:26;;;;;;;14.03;6.80;;;;;;;13.37;45.01;100683.91;5107247;27;20015;-68
2021/12/25 03:02:52;;;;;;;14.33;7.17;;;;;;;13.56;43.66;100676.44;5130127;27;20019;-68
2021/12/25 03:05:18;;;;;;;15.77;6.73;;;;;;;13.48;44.43;100682.78;5111552;27;20031;-68
2021/12/25 03:07:44;;;;;;;13.40;6.43;;;;;;;12.98;44.98;100676.03;5107705;27;20036;-68
2021/12/25 03:10:11;;;;;;;11.93;6.23;;;;;;;13.48;44.96;100674.91;5127574;27;20394;-68
2021/12/25 03:12:48;;;;;;;15.47;6.80;;;;;;;12.63;45.72;100677.66;5110812;28;20027;-68
2021/12/25 03:15:20;;;;;;;13.20;6.93;;;;;;;13.17;44.79;100688.72;5108699;28;20023;-68
2021/12/25 03:17:46;;;;;;;13.77;6.53;;;;;;;11.57;46.68;100685.72;5110702;28;20074;-68
2021/12/25 03:20:12;;;;;;;14.40;6.83;;;;;;;12.63;45.85;100685.53;5111980;28;20502;-67
2021/12/25 03:22:38;;;;;;;12.43;6.27;;;;;;;11.95;45.67;100706.91;5129578;28;20112;-68
2021/12/25 03:25:10;;;;;;;13.27;6.37;;;;;;;12.47;46.35;100700.69;5112030;28;20046;-68
2021/12/25 03:27:38;;;;;;;14.17;7.40;;;;;;;12.65;44.65;100694.22;5123284;28;20088;-68
2021/12/25 03:30:05;;;;;;;16.23;8.20;;;;;;;12.38;45.59;100696.50;5129889;28;20405;-68
2021/12/25 03:32:30;;;;;;;15.90;7.33;;;;;;;12.24;44.97;100709.03;5107144;28;20367;-67
2021/12/25 03:34:56;;;;;;;12.23;5.90;;;;;;;12.19;44.68;100710.84;5127151;28;20021;-68
2021/12/25 03:37:21;;;;;;;12.60;6.20;;;;;;;11.53;47.35;100707.59;5129425;28;20343;-68
2021/12/25 03:39:46;;;;;;;20.53;8.30;;;;;;;12.08;46.07;100715.44;5111945;28;20031;-68
2021/12/25 03:42:12;;;;;;;15.77;7.47;;;;;;;12.72;45.25;100710.66;5128809;28;20055;-68
2021/12/25 03:44:37;;;;;;;14.07;6.50;;;;;;;12.51;44.60;100711.97;5109159;28;20043;-68
2021/12/25 03:47:12;;;;;;;15.17;7.10;;;;;;;12.71;43.63;100711.59;5110386;28;20114;-68
2021/12/25 03:57:55;;;;;;;16.13;7.60;;;;;;;13.44;43.06;100720.53;5128788;28;20060;-68
2021/12/25 04:00:28;;;;;;;19.27;7.97;;;;;;;13.44;42.39;100715.28;5127785;28;20497;-68
2021/12/25 04:02:58;;;;;;;21.00;8.93;;;;;;;13.22;42.77;100726.22;5124410;28;20030;-67
2021/12/25 04:05:28;;;;;;;19.73;8.57;;;;;;;12.21;44.11;100740.50;5107790;28;20031;-67
2021/12/25 04:10:22;;;;;;;15.73;7.57;;;;;;;12.38;43.89;100737.59;5127376;28;20039;-68
2021/12/25 04:12:50;;;;;;;16.80;7.63;;;;;;;12.53;43.92;100731.19;5108362;28;20395;-68
2021/12/25 04:15:15;;;;;;;15.83;7.63;;;;;;;12.59;43.90;100736.28;5111490;28;20451;-68
2021/12/25 04:17:41;;;;;;;16.57;8.23;;;;;;;12.70;42.96;100736.09;5106953;28;20149;-68
2021/12/25 04:20:07;;;;;;;18.57;8.63;;;;;;;12.88;43.09;100745.31;5105031;28;20537;-68
2021/12/25 04:22:57;;;;;;;19.13;8.13;;;;;;;11.88;45.13;100759.38;5111327;28;20027;-67
2021/12/25 04:25:26;;;;;;;18.70;8.63;;;;;;;12.14;44.66;100750.22;5126646;27;20031;-67
2021/12/25 04:27:52;;;;;;;18.43;8.00;;;;;;;12.43;43.42;100756.69;5113279;27;20030;-68
2021/12/25 04:30:30;;;;;;;17.77;8.37;;;;;;;13.31;41.84;100752.28;5132929;27;20060;-69
2021/12/25 04:42:37;;;;;;;19.90;8.93;;;;;;;13.52;41.03;100755.34;5114572;27;20489;-69
2021/12/25 05:03:39;;;;;;;20.00;8.40;;;;;;;11.83;45.22;100789.16;5126217;27;20195;-69
2021/12/25 05:06:04;;;;;;;16.53;7.47;;;;;;;11.06;45.68;100782.38;5113548;27;20038;-68
2021/12/25 05:08:30;;;;;;;20.90;8.20;;;;;;;11.89;44.47;100789.91;5112524;27;20019;-69
2021/12/25 05:10:57;;;;;;;19.03;8.53;;;;;;;12.21;43.89;100785.94;5114615;27;20367;-69
2021/12/25 05:13:22;;;;;;;18.60;7.27;;;;;;;12.25;42.97;100789.34;5113434;27;20333;-69
2021/12/25 05:15:48;;;;;;;20.83;8.17;;;;;;;12.35;42.90;100790.03;5110993;27;20526;-69
2021/12/25 05:18:13;;;;;;;18.33;8.57;;;;;;;12.61;43.42;100789.59;5121342;27;20047;-68
2021/12/25 05:20:39;;;;;;;22.90;8.90;;;;;;;12.29;43.00;100790.16;5113786;27;20494;-69
2021/12/25 05:23:04;;;;;;;23.37;9.90;;;;;;;12.47;43.02;100802.94;5111471;27;20448;-70
2021/12/25 05:25:31;;;;;;;20.60;8.90;;;;;;;11.94;44.40;100796.81;5114901;27;20023;-69
2021/12/25 05:27:59;;;;;;;19.13;8.50;;;;;;;12.39;43.15;100792.59;5103900;27;20031;-69
2021/12/25 05:30:25;;;;;;;21.07;8.23;;;;;;;12.39;43.03;100797.84;5114951;27;20039;-69
2021/12/25 05:32:50;;;;;;;21.00;8.80;;;;;;;12.27;43.92;100808.53;5107257;27;20106;-69
2021/12/25 05:35:16;;;;;;;22.80;9.27;;;;;;;11.92;44.17;100807.31;5110504;27;20174;-69
2021/12/25 05:37:41;;;;;;;17.07;7.30;;;;;;;11.42;44.93;100801.13;5103680;27;20110;-68
2021/12/25 05:40:08;;;;;;;16.00;7.10;;;;;;;10.93;45.23;100811.31;5113555;27;20155;-69
2021/12/25 05:42:33;;;;;;;16.63;6.93;;;;;;;11.27;45.18;100813.50;5111518;27;20088;-69
2021/12/25 05:44:59;;;;;;;18.47;7.80;;;;;;;11.82;43.52;100808.38;5109370;27;20027;-69
2021/12/25 05:47:26;;;;;;;18.63;6.70;;;;;;;11.41;44.90;100815.94;5131172;27;20445;-69
2021/12/25 05:49:51;;;;;;;18.33;7.17;;;;;;;11.41;43.98;100820.31;5132222;27;20043;-69
2021/12/25 05:52:17;;;;;;;14.87;7.03;;;;;;;11.15;45.40;100821.53;5129671;27;20031;-70
2021/12/25 05:54:42;;;;;;;16.30;6.80;;;;;;;10.68;45.42;100829.88;5132189;27;20038;-68
2021/12/25 05:57:08;;;;;;;14.83;6.73;;;;;;;11.32;44.89;100821.28;5110042;27;20035;-69
2021/12/25 05:59:36;;;;;;;15.50;7.17;;;;;;;10.76;45.83;100834.19;5132665;27;20034;-69
2021/12/25 06:02:01;;;;;;;16.80;6.57;;;;;;;12.00;42.88;100829.06;5112987;27;20106;-69
2021/12/25 06:04:27;;;;;;;15.30;7.40;;;;;;;12.36;42.62;100838.97;5131122;27;20119;-69
2021/12/25 06:06:52;;;;;;;14.00;5.87;;;;;;;11.44;43.17;100838.59;5113519;27;20061;-69
2021/12/25 06:09:18;;;;;;;13.30;6.20;;;;;;;11.09;43.75;100839.91;5112976;27;20019;-69
2021/12/25 06:11:45;;;;;;;14.40;6.30;;;;;;;11.82;41.88;100831.94;5131092;27;20031;-69
2021/12/25 06:14:17;;;;;;;13.10;6.07;;;;;;;11.70;42.93;100836.50;5112075;27;20065;-69
2021/12/25 06:16:43;;;;;;;;;;;;;;;11.00;43.97;100851.34;5132322;27;20027;-69
2021/12/25 06:19:09;;;;;;;12.83;5.87;;;;;;;11.14;43.56;100859.91;5112173;27;19919;-69
2021/12/25 06:21:35;;;;;;;14.03;6.50;;;;;;;11.48;43.81;100854.22;5131931;27;20031;-69
2021/12/25 06:24:02;;;;;;;13.23;5.60;;;;;;;10.90;44.70;100861.03;5112341;27;20023;-69
2021/12/25 06:26:28;;;;;;;10.70;5.70;;;;;;;11.05;43.46;100849.53;5112330;27;20023;-69
2021/12/25 06:28:54;;;;;;;13.97;6.07;;;;;;;11.28;43.90;100851.00;5129792;27;20110;-69
2021/12/25 06:31:20;;;;;;;12.87;5.60;;;;;;;11.42;43.21;100848.22;5110991;27;20033;-69
2021/12/25 06:33:45;;;;;;;13.27;5.60;;;;;;;10.15;45.39;100854.72;5109263;27;20027;-69
2021/12/25 06:36:11;;;;;;;13.73;6.13;;;;;;;12.04;42.54;100854.31;5131360;27;20031;-69
2021/12/25 06:38:39;;;;;;;10.73;5.37;;;;;;;11.38;43.10;100850.88;5110258;27;20437;-69
2021/12/25 06:41:05;;;;;;;14.57;5.53;;;;;;;11.54;42.63;100858.53;5131388;27;20023;-69
2021/12/25 06:43:30;;;;;;;15.03;5.93;;;;;;;12.20;41.19;100859.34;5112172;27;20695;-69
2021/12/25 06:45:57;;;;;;;11.47;5.73;;;;;;;12.47;40.69;100878.09;5130959;27;20023;-68
2021/12/25 06:48:22;;;;;;;10.70;5.23;;;;;;;11.57;42.71;100868.97;5089642;28;20682;-68
2021/12/25 06:50:48;;;;;;;9.63;4.80;;;;;;;10.78;43.84;100866.41;5127957;27;20118;-68
2021/12/25 06:53:13;;;;;;;14.57;5.00;;;;;;;11.48;41.98;100861.22;5121049;27;20473;-68
2021/12/25 06:55:38;;;;;;;9.97;5.07;;;;;;;11.44;42.21;100868.22;5100303;27;20479;-69
2021/12/25 06:58:04;;;;;;;11.27;4.90;;;;;;;10.85;42.64;100868.06;5129723;27;20031;-68
2021/12/25 07:00:30;;;;;;;11.67;4.17;;;;;;;10.59;43.59;100874.44;5111015;27;20027;-68
2021/12/25 07:02:57;;;;;;;7.73;3.53;;;;;;;9.91;44.84;100882.75;5128996;27;20418;-68
2021/12/25 07:05:23;;;;;;;7.60;4.07;;;;;;;11.56;41.03;100887.31;5128756;27;20035;-68
2021/12/25 07:07:49;;;;;;;7.60;4.27;;;;;;;10.73;42.48;100889.09;5128278;27;20019;-67
2021/12/25 07:10:15;;;;;;;11.23;3.50;;;;;;;10.19;42.62;100890.41;5103708;27;20015;-68
2021/12/25 07:12:45;;;;;;;13.43;4.00;;;;;;;9.87;44.14;100901.09;5091537;27;20031;-68
2021/12/25 07:15:10;;;;;;;8.97;4.10;;;;;;;10.28;42.56;100890.34;5099951;27;20372;-70
2021/12/25 07:17:36;;;;;;;3.63;2.40;;;;;;;10.85;41.61;100899.44;5108367;28;20054;-68
2021/12/25 07:20:02;;;;;;;4.23;2.80;;;;;;;10.01;43.30;100894.91;5106141;28;20168;-68
2021/12/25 07:22:27;;;;;;;5.63;2.53;;;;;;;9.17;44.46;100914.41;5106500;28;20027;-67
2021/12/25 07:24:53;;;;;;;4.63;2.03;;;;;;;10.41;41.82;100905.94;5105834;28;20023;-67
2021/12/25 07:27:18;;;;;;;4.27;2.53;;;;;;;10.25;42.36;100911.28;5104404;28;20091;-67
2021/12/25 07:29:44;;;;;;;3.47;2.00;;;;;;;9.60;42.66;100914.28;5110207;28;20106;-69
2021/12/25 07:32:09;;;;;;;4.30;1.93;;;;;;;9.83;42.11;100910.66;5107335;28;20463;-68
2021/12/25 07:34:36;;;;;;;3.53;1.57;;;;;;;8.84;43.24;100926.66;5107312;28;20055;-68
2021/12/25 07:37:05;;;;;;;5.47;2.07;;;;;;;9.42;43.23;100924.78;5106559;28;20522;-68
2021/12/25 07:39:30;;;;;;;3.13;1.90;;;;;;;8.47;43.84;100926.69;5109230;28;20058;-67
2021/12/25 07:41:55;;;;;;;21.67;2.53;;;;;;;9.36;42.07;100930.03;5105814;28;20103;-68
2021/12/25 07:44:21;;;;;;;8.90;2.00;;;;;;;10.40;40.53;100923.38;5110210;28;20068;-68
2021/12/25 07:46:47;;;;;;;1.60;1.37;;;;;;;10.43;39.42;100932.94;5101846;28;20364;-67
2021/12/25 07:49:18;;;;;;;3.20;1.80;;;;;;;10.05;40.93;100934.03;5109176;28;20489;-68
2021/12/25 07:51:43;;;;;;;2.90;1.50;;;;;;;9.31;41.93;100943.97;5108006;28;20050;-68
2021/12/25 07:54:09;;;;;;;2.93;1.70;;;;;;;8.43;43.69;100945.75;5125030;28;20494;-68
2021/12/25 07:56:37;;;;;;;3.80;2.07;;;;;;;9.82;41.16;100935.91;5109151;28;20035;-68
2021/12/25 07:59:03;;;;;;;3.40;1.60;;;;;;;8.71;42.24;100951.00;5102693;28;20045;-68
2021/12/25 08:01:31;;;;;;;4.23;1.87;;;;;;;8.47;43.12;100953.59;5124033;27;20044;-68
2021/12/25 08:03:56;;;;;;;3.93;1.70;;;;;;;9.59;41.81;100964.72;5113906;27;20583;-68
2021/12/25 08:06:21;;;;;;;2.63;1.40;;;;;;;8.94;43.30;100962.28;5113962;27;20192;-69
2021/12/25 08:08:54;;;;;;;3.20;1.97;;;;;;;9.60;41.31;100961.25;5114708;27;20011;-68
2021/12/25 08:11:20;;;;;;;3.80;1.83;;;;;;;9.71;40.95;100960.31;5112982;27;20042;-68
2021/12/25 08:13:45;;;;;;;6.60;1.87;;;;;;;8.74;42.79;100962.28;5105460;27;20023;-68
2021/12/25 08:16:10;;;;;;;5.70;1.83;;;;;;;9.65;41.41;100964.69;5113619;27;20498;-69
2021/12/25 08:18:36;;;;;;;2.23;1.83;;;;;;;8.88;42.21;100969.25;5131533;27;20070;-68
2021/12/25 08:21:04;;;;;;;5.40;1.70;;;;;;;8.86;41.63;100961.44;5132021;27;20505;-68
2021/12/25 08:23:30;;;;;;;2.53;1.40;;;;;;;9.31;40.45;100970.03;5113224;27;20057;-68
2021/12/25 08:25:55;;;;;;;3.43;1.33;;;;;;;9.01;42.26;100976.16;5128851;27;20035;-68
2021/12/25 08:28:21;;;;;;;2.23;1.17;;;;;;;8.15;42.90;100969.16;5112392;27;20019;-68
2021/12/25 08:30:46;;;;;;;7.23;1.50;;;;;;;7.92;43.62;100987.31;5113446;27;20031;-68
2021/12/25 08:33:12;;;;;;;4.60;1.40;;;;;;;9.91;39.88;100986.34;5129552;27;20054;-68
2021/12/25 08:35:37;;;;;;;3.43;1.53;;;;;;;9.65;40.08;100985.56;5112184;27;20478;-69
2021/12/25 08:38:03;;;;;;;4.57;1.97;;;;;;;8.72;41.23;100989.22;5112658;27;20409;-69
2021/12/25 08:40:28;;;;;;;1.83;1.40;;;;;;;8.97;41.30;101001.38;5107032;27;20490;-68
2021/12/25 08:42:59;;;;;;;1.30;1.20;;;;;;;7.70;43.95;101004.56;5112664;27;20031;-68
2021/12/25 08:47:57;;;;;;;3.17;1.47;;;;;;;9.39;40.60;101013.50;5132251;27;20027;-69
2021/12/25 08:50:22;;;;;;;4.43;1.37;;;;;;;8.53;41.95;101007.47;5114023;27;20035;-69
2021/12/25 08:52:49;;;;;;;1.83;1.37;;;;;;;7.80;42.82;101006.34;5112875;27;20022;-68
2021/12/25 08:55:14;;;;;;;2.53;1.70;;;;;;;7.81;43.08;101018.50;5132178;27;20038;-68
2021/12/25 08:57:39;;;;;;;2.07;1.20;;;;;;;8.36;42.05;101022.16;5115044;27;20031;-68
2021/12/25 09:00:06;;;;;;;3.73;2.03;;;;;;;9.24;40.37;101017.84;5114517;27;20026;-68
2021/12/25 09:02:31;;;;;;;3.73;1.33;;;;;;;8.53;41.80;101020.50;5114822;27;20633;-68
2021/12/25 09:04:56;;;;;;;4.40;1.90;;;;;;;7.69;43.67;101034.91;5132312;27;20142;-68
2021/12/25 09:07:22;;;;;;;2.67;1.57;;;;;;;9.06;40.73;101030.94;5113622;27;20034;-68
2021/12/25 09:09:48;;;;;;;3.27;1.97;;;;;;;8.68;40.59;101029.19;5113310;27;20098;-68
2021/12/25 09:12:16;;;;;;;1.03;0.93;;;;;;;8.80;40.62;101029.19;5131870;27;20046;-69
2021/12/25 09:14:42;;;;;;;3.83;1.50;;;;;;;7.97;42.92;101035.06;5113124;27;20027;-68
2021/12/25 09:17:08;;;;;;;2.57;1.50;;;;;;;9.07;41.31;101036.13;5113846;27;20059;-68
2021/12/25 09:19:34;;;;;;;2.80;1.47;;;;;;;7.85;41.28;101035.88;5133748;27;20054;-68
2021/12/25 09:21:59;;;;;;;5.67;1.60;;;;;;;8.09;42.08;101039.41;5110685;27;20038;-69
2021/12/25 09:24:25;;;;;;;2.43;1.33;;;;;;;7.88;42.86;101033.28;5112825;27;20079;-68
2021/12/25 09:26:51;;;;;;;2.90;1.90;;;;;;;9.12;40.23;101036.13;5103345;28;20023;-68
2021/12/25 09:29:16;;;;;;;3.43;1.73;;;;;;;9.34;39.32;101031.75;5105246;27;20252;-68
2021/12/25 09:31:42;;;;;;;1.67;1.57;;;;;;;7.88;41.62;101038.47;5133417;27;20084;-68
2021/12/25 09:34:07;;;;;;;5.10;1.90;;;;;;;8.76;40.93;101032.66;5114133;27;20038;-69
2021/12/25 09:36:34;;;;;;;2.77;1.53;;;;;;;8.13;41.60;101042.06;5110622;28;20428;-68
2021/12/25 09:39:00;;;;;;;2.50;1.50;;;;;;;8.05;41.89;101037.66;5103157;27;20027;-68
2021/12/25 09:41:26;;;;;;;2.70;1.60;;;;;;;7.96;41.63;101044.59;5114548;27;20023;-69
2021/12/25 09:43:52;;;;;;;2.90;1.43;;;;;;;8.33;40.93;101034.28;5111128;27;20023;-69
2021/12/25 09:46:20;;;;;;;4.73;2.00;;;;;;;8.16;41.17;101036.00;5124397;27;20543;-68
2021/12/25 09:48:47;;;;;;;8.90;1.83;;;;;;;7.79;42.86;101041.91;5116984;27;20394;-68
2021/12/25 09:51:13;;;;;;;4.77;1.63;;;;;;;7.78;42.09;101044.53;5107267;28;20084;-68
2021/12/25 09:53:39;;;;;;;2.03;1.67;;;;;;;7.83;41.66;101045.41;5120177;27;20015;-68
2021/12/25 09:56:04;;;;;;;2.77;1.50;;;;;;;6.91;43.38;101038.75;5111548;27;20114;-68
2021/12/25 09:58:30;;;;;;;6.27;1.20;;;;;;;7.34;42.85;101037.34;5113066;27;20019;-68
2021/12/25 10:00:57;;;;;;;2.47;1.53;;;;;;;7.75;43.14;101041.91;5130414;27;20027;-68
2021/12/25 10:03:24;;;;;;;2.53;1.37;;;;;;;8.71;41.10;101043.09;5112206;27;20027;-68
2021/12/25 10:05:50;;;;;;;3.90;1.67;;;;;;;7.74;42.67;101048.81;5130693;27;20505;-69
2021/12/25 10:08:18;;;;;;;1.70;1.13;;;;;;;7.74;41.85;101055.78;5113449;27;20393;-68
2021/12/25 10:10:55;;;;;;;2.47;1.70;;;;;;;8.06;41.29;101055.03;5113154;27;20027;-68
2021/12/25 10:13:31;;;;;;;2.07;1.30;;;;;;;7.59;42.03;101054.81;5132580;27;20074;-68
2021/12/25 10:16:18;;;;;;;2.67;1.33;;;;;;;8.14;40.88;101058.53;5107621;27;20451;-68
2021/12/25 10:18:44;;;;;;;3.83;2.00;;;;;;;7.20;42.48;101056.31;5105327;27;20293;-68
2021/12/25 10:21:24;;;;;;;2.73;1.67;;;;;;;8.30;40.81;101055.13;5112661;27;20398;-68
2021/12/25 10:24:07;;;;;;;2.10;1.43;;;;;;;7.71;41.84;101058.38;5129612;27;20424;-68
2021/12/25 10:26:35;;;;;;;3.60;1.60;;;;;;;7.66;40.58;101065.28;5110797;27;20031;-68
2021/12/25 10:29:25;;;;;;;3.80;1.10;;;;;;;8.40;40.29;101055.16;5103944;27;20418;-68
2021/12/25 10:31:53;;;;;;;2.03;1.10;;;;;;;8.05;40.49;101061.09;5111757;27;20030;-68
2021/12/25 10:34:21;;;;;;;1.80;1.07;;;;;;;8.35;39.38;101052.53;5105028;27;20073;-68
2021/12/25 10:36:47;;;;;;;4.10;1.20;;;;;;;8.02;39.46;101061.97;5104665;28;20027;-67
2021/12/25 10:39:17;;;;;;;5.03;1.73;;;;;;;8.93;39.07;101050.91;5107175;27;20038;-68
2021/12/25 10:41:53;;;;;;;1.80;1.50;;;;;;;8.54;39.18;101061.28;5107493;27;20058;-68
2021/12/25 10:44:28;;;;;;;4.03;1.30;;;;;;;8.38;39.37;101062.09;5126878;27;20045;-68
2021/12/25 10:46:53;;;;;;;3.90;1.13;;;;;;;9.02;37.77;101050.91;5097021;27;20035;-68
2021/12/25 10:49:19;;;;;;;3.73;1.10;;;;;;;8.57;38.37;101060.44;5107250;27;20035;-68
2021/12/25 10:51:46;;;;;;;2.40;1.30;;;;;;;9.42;37.33;101055.22;5120760;27;20028;-68
2021/12/25 10:54:13;;;;;;;1.83;0.97;;;;;;;9.32;37.38;101056.97;5098097;28;20016;-68
2021/12/25 10:56:41;;;;;;;1.80;1.23;;;;;;;9.14;37.00;101048.31;5122253;27;20082;-68
2021/12/25 10:59:11;;;;;;;1.30;1.00;;;;;;;8.77;36.85;101056.13;5111185;27;20019;-68
2021/12/25 11:01:42;;;;;;;2.60;1.20;;;;;;;9.28;37.02;101053.50;5131751;27;20687;-68
2021/12/25 11:04:36;;;;;;;0.90;0.73;;;;;;;8.35;37.58;101056.88;5128854;27;20035;-68
2021/12/25 11:07:13;;;;;;;1.83;1.40;;;;;;;8.78;36.80;101054.41;5118349;27;20031;-68
2021/12/25 11:09:38;;;;;;;5.07;1.10;;;;;;;9.84;35.37;101054.25;5130583;27;20093;-68
2021/12/25 11:12:21;;;;;;;1.20;0.90;;;;;;;9.42;36.21;101057.84;5118878;27;20471;-68
2021/12/25 11:14:48;;;;;;;1.63;1.07;;;;;;;9.26;36.36;101057.88;5104382;27;20030;-68
2021/12/25 11:17:23;;;;;;;2.07;1.43;;;;;;;9.09;36.32;101051.78;5118786;27;20027;-68
2021/12/25 11:19:58;;;;;;;1.27;0.93;;;;;;;10.07;35.25;101065.47;5107508;28;20031;-69
2021/12/25 11:22:25;;;;;;;1.63;1.23;;;;;;;9.12;35.57;101062.19;5127056;28;20454;-68
2021/12/25 11:24:52;;;;;;;2.20;1.73;;;;;;;9.16;36.33;101054.41;5112615;28;20501;-68
2021/12/25 11:27:17;;;;;;;1.30;0.90;;;;;;;8.75;36.56;101054.38;5111784;28;20083;-68
2021/12/25 11:29:44;;;;;;;0.93;0.67;;;;;;;8.73;36.33;101058.72;5127420;28;20439;-69
2021/12/25 11:32:11;;;;;;;1.13;0.67;;;;;;;9.08;36.75;101035.28;5098955;28;20045;-68
2021/12/25 11:34:37;;;;;;;1.83;0.93;;;;;;;8.24;36.99;101044.72;5111894;27;20474;-68
2021/12/25 11:37:03;;;;;;;1.83;1.00;;;;;;;9.34;35.69;101043.06;5130313;27;20041;-68
2021/12/25 11:39:34;;;;;;;0.93;0.83;;;;;;;10.00;35.13;101039.41;5131101;27;20050;-68
2021/12/25 11:42:08;;;;;;;1.47;0.80;;;;;;;9.20;35.43;101047.41;5116216;27;20031;-68
2021/12/25 11:44:44;;;;;;;0.97;0.70;;;;;;;9.84;34.96;101049.03;5113636;27;20027;-68
2021/12/25 11:47:40;;;;;;;3.07;1.10;;;;;;;9.19;35.53;101048.31;5096482;28;20035;-68
2021/12/25 11:50:28;;;;;;;0.73;0.60;;;;;;;8.97;35.36;101037.88;5134479;27;20114;-68
2021/12/25 11:53:06;;;;;;;0.63;0.60;;;;;;;9.99;34.71;101037.66;5101663;27;20147;-68
2021/12/25 12:00:43;;;;;;;1.03;0.70;;;;;;;9.04;34.97;101028.31;5125799;27;20027;-68
2021/12/25 12:03:09;;;;;;;0.57;0.57;;;;;;;10.37;33.73;101032.28;5115596;27;20050;-68
2021/12/25 12:05:38;;;;;;;0.60;0.60;;;;;;;10.58;33.35;101029.53;5134007;27;20398;-69
2021/12/25 12:08:10;;;;;;;0.70;0.70;;;;;;;10.23;34.04;101017.50;5108833;28;20019;-68
2021/12/25 12:10:44;;;;;;;1.00;0.75;;;;;;;9.99;34.85;101026.34;5103111;27;20059;-68
2021/12/25 12:13:21;;;;;;;1.13;0.77;;;;;;;9.26;35.10;101029.16;5114670;27;20063;-68
2021/12/25 12:15:49;;;;;;;2.93;0.70;;;;;;;9.74;34.11;101020.34;5126462;27;20027;-69
2021/12/25 12:18:24;;;;;;;0.90;0.70;;;;;;;10.06;33.89;101017.59;5115365;27;20491;-68
2021/12/25 12:20:51;;;;;;;0.30;0.30;;;;;;;9.99;33.05;101019.38;5105721;28;20123;-68
2021/12/25 12:24:11;;;;;;;0.70;0.63;;;;;;;10.09;33.86;101017.59;5097550;27;20043;-68
2021/12/25 12:26:47;;;;;;;0.50;0.50;;;;;;;10.25;33.26;101023.59;5041050;28;20444;-68
2021/12/25 12:29:34;;;;;;;0.70;0.60;;;;;;;9.23;34.67;101023.97;5122313;27;20043;-69
2021/12/25 12:31:59;;;;;;;0.90;0.50;;;;;;;9.60;34.59;101023.88;5095287;28;20036;-68
2021/12/25 12:34:39;;;;;;;2.63;0.80;;;;;;;9.14;34.47;101013.53;5098525;27;20069;-68
2021/12/25 12:37:13;;;;;;;0.87;0.53;;;;;;;9.77;34.40;101009.91;5132485;27;20113;-68
2021/12/25 12:40:03;;;;;;;0.70;0.53;;;;;;;9.54;34.05;101005.63;5134242;27;20023;-68
2021/12/25 12:42:37;;;;;;;0.73;0.70;;;;;;;10.78;32.49;100991.91;5098717;27;20031;-68
2021/12/25 12:45:19;;;;;;;3.77;0.80;;;;;;;10.45;33.15;100989.53;5124639;27;20031;-68